Terminal Aerodrome Forecast
Issued by NWS

Current Version | Previous Version | Text Only | Print | Product List | Glossary Off
Versions: 1 2 3 4 5 6 7 8 9 10 11 12 13 14 15 16 17 18 19 20 21 22

000
FTUS41 KRLX 161120
TAFCKB
TAF
KCKB 161120Z 1612/1712 32006KT P6SM BKN035
     FM161700 32007G16KT P6SM SCT040
     FM162200 32004KT P6SM FEW250=

USA.gov is the U.S. government's official web portal to all federal, state and local government web resources and services.